sensor_id;sensor_type;location;lat;lon;timestamp;P1;durP1;ratioP1;P2;durP2;ratioP2
16407;SDS011;8313;49.894;8.084;2024-03-23T00:55:41;8.40;;;5.40;;
16407;SDS011;8313;49.894;8.084;2024-03-23T00:58:07;8.33;;;5.87;;
16407;SDS011;8313;49.894;8.084;2024-03-23T01:00:34;9.43;;;6.10;;
16407;SDS011;8313;49.894;8.084;2024-03-23T01:02:59;9.20;;;6.70;;
16407;SDS011;8313;49.894;8.084;2024-03-23T01:05:25;7.00;;;5.40;;
16407;SDS011;8313;49.894;8.084;2024-03-23T01:07:51;9.20;;;5.23;;
16407;SDS011;8313;49.894;8.084;2024-03-23T01:10:16;7.27;;;5.30;;
16407;SDS011;8313;49.894;8.084;2024-03-23T01:12:42;6.13;;;5.43;;
16407;SDS011;8313;49.894;8.084;2024-03-23T01:15:08;9.97;;;6.77;;
16407;SDS011;8313;49.894;8.084;2024-03-23T01:17:34;8.00;;;6.50;;
16407;SDS011;8313;49.894;8.084;2024-03-23T01:19:59;9.80;;;7.10;;
16407;SDS011;8313;49.894;8.084;2024-03-23T01:22:25;11.50;;;7.63;;
16407;SDS011;8313;49.894;8.084;2024-03-23T01:24:51;11.37;;;7.60;;
16407;SDS011;8313;49.894;8.084;2024-03-23T01:27:16;12.27;;;7.47;;
16407;SDS011;8313;49.894;8.084;2024-03-23T01:29:42;13.60;;;7.60;;
16407;SDS011;8313;49.894;8.084;2024-03-23T01:32:07;9.70;;;7.33;;
16407;SDS011;8313;49.894;8.084;2024-03-23T01:34:33;14.80;;;7.70;;
16407;SDS011;8313;49.894;8.084;2024-03-23T01:36:59;13.77;;;8.73;;
16407;SDS011;8313;49.894;8.084;2024-03-23T01:39:24;14.00;;;8.53;;
16407;SDS011;8313;49.894;8.084;2024-03-23T01:41:50;9.77;;;6.87;;
16407;SDS011;8313;49.894;8.084;2024-03-23T01:44:16;16.07;;;7.57;;
16407;SDS011;8313;49.894;8.084;2024-03-23T01:46:42;12.87;;;7.93;;
16407;SDS011;8313;49.894;8.084;2024-03-23T01:49:09;15.70;;;8.27;;
16407;SDS011;8313;49.894;8.084;2024-03-23T01:51:36;12.30;;;7.60;;
16407;SDS011;8313;49.894;8.084;2024-03-23T01:54:03;12.00;;;7.53;;
16407;SDS011;8313;49.894;8.084;2024-03-23T01:56:29;10.57;;;7.33;;
16407;SDS011;8313;49.894;8.084;2024-03-23T01:58:58;10.07;;;6.97;;
16407;SDS011;8313;49.894;8.084;2024-03-23T02:01:23;11.63;;;7.60;;
16407;SDS011;8313;49.894;8.084;2024-03-23T02:03:49;9.40;;;7.70;;
16407;SDS011;8313;49.894;8.084;2024-03-23T02:06:14;14.20;;;8.53;;
16407;SDS011;8313;49.894;8.084;2024-03-23T02:08:40;13.23;;;8.43;;
16407;SDS011;8313;49.894;8.084;2024-03-23T02:11:06;10.43;;;8.20;;
16407;SDS011;8313;49.894;8.084;2024-03-23T02:13:31;12.90;;;8.10;;
16407;SDS011;8313;49.894;8.084;2024-03-23T02:15:57;10.40;;;7.60;;
16407;SDS011;8313;49.894;8.084;2024-03-23T02:18:23;13.57;;;7.70;;
16407;SDS011;8313;49.894;8.084;2024-03-23T02:20:49;12.20;;;8.03;;
16407;SDS011;8313;49.894;8.084;2024-03-23T02:23:15;11.23;;;7.97;;
16407;SDS011;8313;49.894;8.084;2024-03-23T02:25:41;12.93;;;7.70;;
16407;SDS011;8313;49.894;8.084;2024-03-23T02:28:07;14.10;;;8.60;;
16407;SDS011;8313;49.894;8.084;2024-03-23T02:30:33;11.87;;;8.67;;
16407;SDS011;8313;49.894;8.084;2024-03-23T02:32:59;11.40;;;7.90;;
16407;SDS011;8313;49.894;8.084;2024-03-23T02:35:24;12.70;;;8.40;;
16407;SDS011;8313;49.894;8.084;2024-03-23T02:37:50;13.60;;;8.50;;
16407;SDS011;8313;49.894;8.084;2024-03-23T02:40:16;12.20;;;8.77;;
16407;SDS011;8313;49.894;8.084;2024-03-23T02:42:42;16.33;;;8.93;;
16407;SDS011;8313;49.894;8.084;2024-03-23T02:45:08;11.27;;;8.37;;
16407;SDS011;8313;49.894;8.084;2024-03-23T02:47:34;11.70;;;8.70;;
16407;SDS011;8313;49.894;8.084;2024-03-23T02:49:59;13.80;;;8.60;;
16407;SDS011;8313;49.894;8.084;2024-03-23T02:52:25;14.43;;;9.13;;
16407;SDS011;8313;49.894;8.084;2024-03-23T02:54:51;12.90;;;9.20;;
16407;SDS011;8313;49.894;8.084;2024-03-23T02:57:16;10.70;;;8.43;;
16407;SDS011;8313;49.894;8.084;2024-03-23T02:59:42;11.10;;;7.97;;
16407;SDS011;8313;49.894;8.084;2024-03-23T03:02:08;14.20;;;9.03;;
16407;SDS011;8313;49.894;8.084;2024-03-23T03:04:34;12.27;;;8.07;;
16407;SDS011;8313;49.894;8.084;2024-03-23T03:06:59;15.13;;;9.30;;
16407;SDS011;8313;49.894;8.084;2024-03-23T03:09:25;12.53;;;9.23;;
16407;SDS011;8313;49.894;8.084;2024-03-23T03:11:51;14.63;;;9.17;;
16407;SDS011;8313;49.894;8.084;2024-03-23T03:14:17;14.07;;;9.80;;
16407;SDS011;8313;49.894;8.084;2024-03-23T03:16:42;16.33;;;9.97;;
16407;SDS011;8313;49.894;8.084;2024-03-23T03:19:08;18.13;;;9.20;;
16407;SDS011;8313;49.894;8.084;2024-03-23T03:21:35;15.20;;;9.80;;
16407;SDS011;8313;49.894;8.084;2024-03-23T03:24:02;17.00;;;10.57;;
16407;SDS011;8313;49.894;8.084;2024-03-23T03:26:28;15.50;;;9.83;;
16407;SDS011;8313;49.894;8.084;2024-03-23T03:28:53;16.13;;;8.80;;
16407;SDS011;8313;49.894;8.084;2024-03-23T03:31:19;20.43;;;10.20;;
16407;SDS011;8313;49.894;8.084;2024-03-23T03:33:45;15.27;;;10.70;;
16407;SDS011;8313;49.894;8.084;2024-03-23T03:36:11;13.83;;;9.77;;
16407;SDS011;8313;49.894;8.084;2024-03-23T03:38:37;18.57;;;10.80;;
16407;SDS011;8313;49.894;8.084;2024-03-23T03:41:03;16.33;;;11.13;;
16407;SDS011;8313;49.894;8.084;2024-03-23T03:43:31;15.47;;;9.37;;
16407;SDS011;8313;49.894;8.084;2024-03-23T03:45:57;19.10;;;12.23;;
16407;SDS011;8313;49.894;8.084;2024-03-23T03:48:23;15.13;;;9.77;;
16407;SDS011;8313;49.894;8.084;2024-03-23T03:50:49;18.77;;;11.50;;
16407;SDS011;8313;49.894;8.084;2024-03-23T03:53:15;15.43;;;9.77;;
16407;SDS011;8313;49.894;8.084;2024-03-23T03:55:41;17.60;;;10.10;;
16407;SDS011;8313;49.894;8.084;2024-03-23T03:58:07;12.47;;;8.80;;
16407;SDS011;8313;49.894;8.084;2024-03-23T04:00:32;10.33;;;7.07;;
16407;SDS011;8313;49.894;8.084;2024-03-23T04:02:58;9.90;;;5.53;;
16407;SDS011;8313;49.894;8.084;2024-03-23T04:05:24;6.03;;;3.90;;
16407;SDS011;8313;49.894;8.084;2024-03-23T04:07:49;3.07;;;2.67;;
16407;SDS011;8313;49.894;8.084;2024-03-23T04:10:15;2.47;;;2.20;;
16407;SDS011;8313;49.894;8.084;2024-03-23T04:12:41;3.37;;;2.10;;
16407;SDS011;8313;49.894;8.084;2024-03-23T04:15:08;2.00;;;1.70;;
16407;SDS011;8313;49.894;8.084;2024-03-23T04:17:34;2.10;;;1.90;;
16407;SDS011;8313;49.894;8.084;2024-03-23T04:19:59;3.87;;;1.90;;
16407;SDS011;8313;49.894;8.084;2024-03-23T04:22:26;3.00;;;2.77;;
16407;SDS011;8313;49.894;8.084;2024-03-23T04:24:53;1.70;;;1.60;;
16407;SDS011;8313;49.894;8.084;2024-03-23T04:27:19;1.90;;;1.70;;
16407;SDS011;8313;49.894;8.084;2024-03-23T04:29:48;3.13;;;1.40;;
16407;SDS011;8313;49.894;8.084;2024-03-23T04:32:14;1.87;;;1.47;;
16407;SDS011;8313;49.894;8.084;2024-03-23T04:34:40;1.97;;;1.40;;
16407;SDS011;8313;49.894;8.084;2024-03-23T04:37:06;1.13;;;1.00;;
16407;SDS011;8313;49.894;8.084;2024-03-23T04:39:32;1.50;;;1.40;;
16407;SDS011;8313;49.894;8.084;2024-03-23T04:41:58;1.23;;;1.13;;
16407;SDS011;8313;49.894;8.084;2024-03-23T04:44:24;1.53;;;1.27;;
16407;SDS011;8313;49.894;8.084;2024-03-23T04:46:49;2.00;;;1.60;;
16407;SDS011;8313;49.894;8.084;2024-03-23T04:49:15;2.70;;;2.10;;
16407;SDS011;8313;49.894;8.084;2024-03-23T04:51:41;4.27;;;3.40;;
16407;SDS011;8313;49.894;8.084;2024-03-23T04:54:11;4.70;;;3.07;;
16407;SDS011;8313;49.894;8.084;2024-03-23T04:56:37;2.93;;;2.50;;
16407;SDS011;8313;49.894;8.084;2024-03-23T04:59:03;2.13;;;1.93;;
16407;SDS011;8313;49.894;8.084;2024-03-23T05:01:30;1.80;;;1.47;;
16407;SDS011;8313;49.894;8.084;2024-03-23T05:03:56;2.80;;;2.27;;
16407;SDS011;8313;49.894;8.084;2024-03-23T05:06:22;2.83;;;1.60;;
16407;SDS011;8313;49.894;8.084;2024-03-23T05:08:48;2.40;;;1.47;;
16407;SDS011;8313;49.894;8.084;2024-03-23T05:11:14;2.77;;;1.67;;
16407;SDS011;8313;49.894;8.084;2024-03-23T05:13:41;1.93;;;1.67;;
16407;SDS011;8313;49.894;8.084;2024-03-23T05:16:07;1.53;;;1.20;;
16407;SDS011;8313;49.894;8.084;2024-03-23T05:18:33;1.70;;;1.47;;
16407;SDS011;8313;49.894;8.084;2024-03-23T05:20:59;1.80;;;1.33;;
16407;SDS011;8313;49.894;8.084;2024-03-23T05:23:26;1.13;;;1.00;;
16407;SDS011;8313;49.894;8.084;2024-03-23T05:25:51;1.40;;;0.90;;
16407;SDS011;8313;49.894;8.084;2024-03-23T05:28:18;1.97;;;1.30;;
16407;SDS011;8313;49.894;8.084;2024-03-23T05:30:49;1.73;;;1.37;;
16407;SDS011;8313;49.894;8.084;2024-03-23T05:33:16;1.17;;;1.07;;
16407;SDS011;8313;49.894;8.084;2024-03-23T05:35:42;0.90;;;0.90;;
16407;SDS011;8313;49.894;8.084;2024-03-23T05:38:08;1.83;;;1.30;;
16407;SDS011;8313;49.894;8.084;2024-03-23T05:40:33;0.87;;;0.57;;
16407;SDS011;8313;49.894;8.084;2024-03-23T05:43:02;0.77;;;0.70;;
16407;SDS011;8313;49.894;8.084;2024-03-23T05:45:28;0.70;;;0.70;;
16407;SDS011;8313;49.894;8.084;2024-03-23T05:47:54;2.60;;;0.97;;
16407;SDS011;8313;49.894;8.084;2024-03-23T05:50:22;1.33;;;0.60;;
16407;SDS011;8313;49.894;8.084;2024-03-23T05:52:48;0.70;;;0.70;;
16407;SDS011;8313;49.894;8.084;2024-03-23T05:55:14;0.60;;;0.50;;
16407;SDS011;8313;49.894;8.084;2024-03-23T05:57:40;4.30;;;1.17;;
16407;SDS011;8313;49.894;8.084;2024-03-23T06:00:07;1.37;;;0.60;;
16407;SDS011;8313;49.894;8.084;2024-03-23T06:02:44;2.63;;;1.60;;
16407;SDS011;8313;49.894;8.084;2024-03-23T06:05:12;1.53;;;1.30;;
16407;SDS011;8313;49.894;8.084;2024-03-23T06:07:38;2.33;;;0.80;;
16407;SDS011;8313;49.894;8.084;2024-03-23T06:10:04;0.63;;;0.60;;
16407;SDS011;8313;49.894;8.084;2024-03-23T06:12:30;0.60;;;0.60;;
16407;SDS011;8313;49.894;8.084;2024-03-23T06:14:56;0.73;;;0.60;;
16407;SDS011;8313;49.894;8.084;2024-03-23T06:17:22;0.80;;;0.80;;
16407;SDS011;8313;49.894;8.084;2024-03-23T06:19:48;0.60;;;0.50;;
16407;SDS011;8313;49.894;8.084;2024-03-23T06:22:15;0.60;;;0.60;;
16407;SDS011;8313;49.894;8.084;2024-03-23T06:24:41;0.60;;;0.60;;
16407;SDS011;8313;49.894;8.084;2024-03-23T06:27:06;0.60;;;0.60;;
16407;SDS011;8313;49.894;8.084;2024-03-23T06:29:32;0.60;;;0.60;;
16407;SDS011;8313;49.894;8.084;2024-03-23T06:31:57;2.27;;;1.50;;
16407;SDS011;8313;49.894;8.084;2024-03-23T06:34:23;1.43;;;1.33;;
16407;SDS011;8313;49.894;8.084;2024-03-23T06:36:49;1.47;;;1.37;;
16407;SDS011;8313;49.894;8.084;2024-03-23T06:39:15;2.30;;;2.10;;
16407;SDS011;8313;49.894;8.084;2024-03-23T06:41:53;1.83;;;1.73;;
16407;SDS011;8313;49.894;8.084;2024-03-23T06:44:20;2.10;;;1.87;;
16407;SDS011;8313;49.894;8.084;2024-03-23T06:46:46;2.20;;;2.03;;
16407;SDS011;8313;49.894;8.084;2024-03-23T06:49:12;4.10;;;3.13;;
16407;SDS011;8313;49.894;8.084;2024-03-23T06:51:38;2.70;;;2.33;;
16407;SDS011;8313;49.894;8.084;2024-03-23T06:54:04;8.03;;;2.13;;
16407;SDS011;8313;49.894;8.084;2024-03-23T06:56:30;4.23;;;2.67;;
16407;SDS011;8313;49.894;8.084;2024-03-23T06:58:56;2.43;;;2.23;;
16407;SDS011;8313;49.894;8.084;2024-03-23T07:01:22;4.10;;;2.73;;
16407;SDS011;8313;49.894;8.084;2024-03-23T07:03:48;2.90;;;2.37;;
16407;SDS011;8313;49.894;8.084;2024-03-23T07:06:13;4.30;;;2.83;;
16407;SDS011;8313;49.894;8.084;2024-03-23T07:08:39;3.10;;;2.80;;
16407;SDS011;8313;49.894;8.084;2024-03-23T07:11:05;3.80;;;3.10;;
16407;SDS011;8313;49.894;8.084;2024-03-23T07:13:30;2.97;;;2.70;;
16407;SDS011;8313;49.894;8.084;2024-03-23T07:15:56;6.80;;;3.33;;
16407;SDS011;8313;49.894;8.084;2024-03-23T07:18:23;3.43;;;3.13;;
16407;SDS011;8313;49.894;8.084;2024-03-23T07:20:55;3.27;;;2.97;;
16407;SDS011;8313;49.894;8.084;2024-03-23T07:23:21;3.67;;;2.97;;
16407;SDS011;8313;49.894;8.084;2024-03-23T07:25:58;5.07;;;3.20;;
16407;SDS011;8313;49.894;8.084;2024-03-23T07:28:23;4.07;;;3.53;;
16407;SDS011;8313;49.894;8.084;2024-03-23T07:31:00;5.23;;;3.10;;
16407;SDS011;8313;49.894;8.084;2024-03-23T07:33:36;4.67;;;3.63;;
16407;SDS011;8313;49.894;8.084;2024-03-23T07:36:03;4.60;;;3.00;;
16407;SDS011;8313;49.894;8.084;2024-03-23T07:38:30;4.83;;;2.60;;
16407;SDS011;8313;49.894;8.084;2024-03-23T07:43:48;5.70;;;3.40;;
16407;SDS011;8313;49.894;8.084;2024-03-23T07:46:15;5.43;;;3.77;;
16407;SDS011;8313;49.894;8.084;2024-03-23T07:48:41;7.13;;;3.67;;
16407;SDS011;8313;49.894;8.084;2024-03-23T07:51:08;3.90;;;3.27;;
16407;SDS011;8313;49.894;8.084;2024-03-23T07:53:35;6.23;;;4.60;;
16407;SDS011;8313;49.894;8.084;2024-03-23T07:56:04;4.93;;;3.70;;
16407;SDS011;8313;49.894;8.084;2024-03-23T07:58:31;4.47;;;3.40;;
16407;SDS011;8313;49.894;8.084;2024-03-23T08:01:03;7.73;;;4.67;;
16407;SDS011;8313;49.894;8.084;2024-03-23T08:03:30;7.43;;;4.60;;
16407;SDS011;8313;49.894;8.084;2024-03-23T08:05:56;6.20;;;4.97;;
16407;SDS011;8313;49.894;8.084;2024-03-23T08:08:22;10.27;;;5.17;;
16407;SDS011;8313;49.894;8.084;2024-03-23T08:10:48;9.60;;;6.40;;
16407;SDS011;8313;49.894;8.084;2024-03-23T08:13:18;10.20;;;5.57;;
16407;SDS011;8313;49.894;8.084;2024-03-23T08:15:44;6.47;;;4.57;;
16407;SDS011;8313;49.894;8.084;2024-03-23T08:18:13;10.53;;;4.90;;
16407;SDS011;8313;49.894;8.084;2024-03-23T08:20:40;9.83;;;3.83;;
16407;SDS011;8313;49.894;8.084;2024-03-23T08:23:06;7.97;;;4.17;;
16407;SDS011;8313;49.894;8.084;2024-03-23T08:25:33;6.67;;;2.80;;
16407;SDS011;8313;49.894;8.084;2024-03-23T08:27:59;5.17;;;3.40;;
16407;SDS011;8313;49.894;8.084;2024-03-23T08:30:25;4.60;;;3.03;;
16407;SDS011;8313;49.894;8.084;2024-03-23T08:32:51;5.37;;;3.60;;
16407;SDS011;8313;49.894;8.084;2024-03-23T08:35:17;4.10;;;2.83;;
16407;SDS011;8313;49.894;8.084;2024-03-23T08:37:43;7.90;;;3.60;;
16407;SDS011;8313;49.894;8.084;2024-03-23T08:40:09;4.10;;;3.07;;
16407;SDS011;8313;49.894;8.084;2024-03-23T08:42:35;5.83;;;3.17;;
16407;SDS011;8313;49.894;8.084;2024-03-23T08:45:01;3.90;;;3.00;;
16407;SDS011;8313;49.894;8.084;2024-03-23T08:47:26;4.17;;;2.73;;
16407;SDS011;8313;49.894;8.084;2024-03-23T08:49:52;3.97;;;2.63;;
16407;SDS011;8313;49.894;8.084;2024-03-23T08:52:18;7.63;;;3.13;;
16407;SDS011;8313;49.894;8.084;2024-03-23T08:54:43;5.83;;;2.90;;
16407;SDS011;8313;49.894;8.084;2024-03-23T08:57:09;6.63;;;2.50;;
16407;SDS011;8313;49.894;8.084;2024-03-23T08:59:35;3.47;;;2.67;;
16407;SDS011;8313;49.894;8.084;2024-03-23T09:02:00;3.67;;;2.10;;
16407;SDS011;8313;49.894;8.084;2024-03-23T09:04:26;2.60;;;2.30;;
16407;SDS011;8313;49.894;8.084;2024-03-23T09:06:52;4.63;;;2.47;;
16407;SDS011;8313;49.894;8.084;2024-03-23T09:09:17;3.10;;;2.47;;
16407;SDS011;8313;49.894;8.084;2024-03-23T09:11:45;3.73;;;1.90;;
16407;SDS011;8313;49.894;8.084;2024-03-23T09:14:10;9.00;;;2.30;;
16407;SDS011;8313;49.894;8.084;2024-03-23T09:16:36;2.73;;;1.90;;
16407;SDS011;8313;49.894;8.084;2024-03-23T09:19:02;3.47;;;1.93;;
16407;SDS011;8313;49.894;8.084;2024-03-23T09:21:28;7.43;;;2.63;;
16407;SDS011;8313;49.894;8.084;2024-03-23T09:23:53;6.43;;;2.73;;
16407;SDS011;8313;49.894;8.084;2024-03-23T09:26:19;4.67;;;2.23;;
16407;SDS011;8313;49.894;8.084;2024-03-23T09:28:47;8.10;;;2.17;;
16407;SDS011;8313;49.894;8.084;2024-03-23T09:31:13;3.93;;;2.10;;
16407;SDS011;8313;49.894;8.084;2024-03-23T09:33:40;5.57;;;2.37;;
16407;SDS011;8313;49.894;8.084;2024-03-23T09:36:06;3.17;;;2.70;;
16407;SDS011;8313;49.894;8.084;2024-03-23T09:38:32;2.50;;;1.70;;
16407;SDS011;8313;49.894;8.084;2024-03-23T09:40:58;4.00;;;2.10;;
16407;SDS011;8313;49.894;8.084;2024-03-23T09:43:24;4.40;;;2.40;;
16407;SDS011;8313;49.894;8.084;2024-03-23T09:45:50;4.80;;;1.60;;
16407;SDS011;8313;49.894;8.084;2024-03-23T09:48:17;5.33;;;2.23;;
16407;SDS011;8313;49.894;8.084;2024-03-23T09:50:44;2.00;;;1.80;;
16407;SDS011;8313;49.894;8.084;2024-03-23T09:53:11;6.00;;;2.10;;
16407;SDS011;8313;49.894;8.084;2024-03-23T09:55:38;2.63;;;1.83;;
16407;SDS011;8313;49.894;8.084;2024-03-23T09:58:05;5.03;;;2.03;;
16407;SDS011;8313;49.894;8.084;2024-03-23T10:00:37;2.27;;;2.07;;
16407;SDS011;8313;49.894;8.084;2024-03-23T10:03:03;5.07;;;2.20;;
16407;SDS011;8313;49.894;8.084;2024-03-23T10:05:31;1.73;;;1.40;;
16407;SDS011;8313;49.894;8.084;2024-03-23T10:07:59;3.10;;;1.83;;
16407;SDS011;8313;49.894;8.084;2024-03-23T10:10:25;1.90;;;1.70;;
16407;SDS011;8313;49.894;8.084;2024-03-23T10:12:51;2.13;;;1.93;;
16407;SDS011;8313;49.894;8.084;2024-03-23T10:15:18;5.63;;;2.43;;
16407;SDS011;8313;49.894;8.084;2024-03-23T10:17:47;3.10;;;1.70;;
16407;SDS011;8313;49.894;8.084;2024-03-23T10:20:13;5.57;;;1.83;;
16407;SDS011;8313;49.894;8.084;2024-03-23T10:22:44;2.57;;;1.57;;
16407;SDS011;8313;49.894;8.084;2024-03-23T10:25:11;6.30;;;1.70;;
16407;SDS011;8313;49.894;8.084;2024-03-23T10:27:38;2.27;;;1.77;;
16407;SDS011;8313;49.894;8.084;2024-03-23T10:30:08;3.93;;;1.50;;
16407;SDS011;8313;49.894;8.084;2024-03-23T10:32:34;1.33;;;1.23;;
16407;SDS011;8313;49.894;8.084;2024-03-23T10:35:21;4.33;;;1.60;;
16407;SDS011;8313;49.894;8.084;2024-03-23T10:37:47;2.57;;;1.30;;
16407;SDS011;8313;49.894;8.084;2024-03-23T10:40:14;6.03;;;1.83;;
16407;SDS011;8313;49.894;8.084;2024-03-23T10:42:41;3.27;;;1.77;;
16407;SDS011;8313;49.894;8.084;2024-03-23T10:45:07;1.73;;;1.63;;
16407;SDS011;8313;49.894;8.084;2024-03-23T10:47:34;2.50;;;1.37;;
16407;SDS011;8313;49.894;8.084;2024-03-23T10:50:04;4.60;;;1.90;;
16407;SDS011;8313;49.894;8.084;2024-03-23T10:52:33;2.17;;;1.27;;
16407;SDS011;8313;49.894;8.084;2024-03-23T10:54:59;1.83;;;0.87;;
16407;SDS011;8313;49.894;8.084;2024-03-23T10:57:31;1.63;;;0.80;;
16407;SDS011;8313;49.894;8.084;2024-03-23T10:59:59;1.37;;;1.00;;
16407;SDS011;8313;49.894;8.084;2024-03-23T11:02:26;2.17;;;1.10;;
16407;SDS011;8313;49.894;8.084;2024-03-23T11:04:53;3.43;;;1.47;;
16407;SDS011;8313;49.894;8.084;2024-03-23T11:09:54;1.80;;;1.33;;
16407;SDS011;8313;49.894;8.084;2024-03-23T11:17:27;3.57;;;1.60;;
16407;SDS011;8313;49.894;8.084;2024-03-23T11:25:22;6.07;;;2.13;;
16407;SDS011;8313;49.894;8.084;2024-03-23T11:27:49;6.37;;;1.93;;
16407;SDS011;8313;49.894;8.084;2024-03-23T11:30:22;3.17;;;2.77;;
16407;SDS011;8313;49.894;8.084;2024-03-23T11:32:55;6.83;;;3.17;;
16407;SDS011;8313;49.894;8.084;2024-03-23T11:35:28;3.27;;;2.60;;
16407;SDS011;8313;49.894;8.084;2024-03-23T11:38:14;3.60;;;2.10;;
16407;SDS011;8313;49.894;8.084;2024-03-23T11:40:50;2.03;;;1.80;;
16407;SDS011;8313;49.894;8.084;2024-03-23T11:43:16;5.13;;;2.67;;
16407;SDS011;8313;49.894;8.084;2024-03-23T11:45:43;5.40;;;2.10;;
16407;SDS011;8313;49.894;8.084;2024-03-23T11:48:17;3.47;;;1.97;;
16407;SDS011;8313;49.894;8.084;2024-03-23T11:50:48;9.50;;;2.70;;
16407;SDS011;8313;49.894;8.084;2024-03-23T11:53:23;3.77;;;1.73;;
16407;SDS011;8313;49.894;8.084;2024-03-23T11:55:55;4.33;;;2.10;;
16407;SDS011;8313;49.894;8.084;2024-03-23T11:58:22;2.57;;;1.90;;
16407;SDS011;8313;49.894;8.084;2024-03-23T12:00:52;7.73;;;2.30;;
16407;SDS011;8313;49.894;8.084;2024-03-23T12:03:22;4.10;;;2.30;;
16407;SDS011;8313;49.894;8.084;2024-03-23T12:05:53;4.50;;;2.37;;
16407;SDS011;8313;49.894;8.084;2024-03-23T12:08:21;3.17;;;2.00;;
16407;SDS011;8313;49.894;8.084;2024-03-23T12:11:04;3.77;;;2.43;;
16407;SDS011;8313;49.894;8.084;2024-03-23T12:13:31;5.37;;;2.57;;
16407;SDS011;8313;49.894;8.084;2024-03-23T12:16:08;7.93;;;2.30;;
16407;SDS011;8313;49.894;8.084;2024-03-23T12:18:34;6.23;;;2.20;;
16407;SDS011;8313;49.894;8.084;2024-03-23T12:21:00;4.87;;;1.97;;
16407;SDS011;8313;49.894;8.084;2024-03-23T12:23:25;10.70;;;2.47;;
16407;SDS011;8313;49.894;8.084;2024-03-23T12:25:51;3.30;;;2.13;;
16407;SDS011;8313;49.894;8.084;2024-03-23T12:28:16;3.23;;;1.83;;
16407;SDS011;8313;49.894;8.084;2024-03-23T12:30:42;7.27;;;2.27;;
16407;SDS011;8313;49.894;8.084;2024-03-23T12:33:08;1.97;;;1.57;;
16407;SDS011;8313;49.894;8.084;2024-03-23T12:35:34;3.53;;;1.60;;
16407;SDS011;8313;49.894;8.084;2024-03-23T12:37:59;2.20;;;1.27;;
16407;SDS011;8313;49.894;8.084;2024-03-23T12:40:25;2.23;;;1.47;;
16407;SDS011;8313;49.894;8.084;2024-03-23T12:42:52;1.57;;;1.03;;
16407;SDS011;8313;49.894;8.084;2024-03-23T12:45:18;4.07;;;1.00;;
16407;SDS011;8313;49.894;8.084;2024-03-23T12:47:44;2.30;;;0.93;;
16407;SDS011;8313;49.894;8.084;2024-03-23T12:50:10;1.63;;;0.97;;
16407;SDS011;8313;49.894;8.084;2024-03-23T12:52:37;2.27;;;1.00;;
16407;SDS011;8313;49.894;8.084;2024-03-23T12:55:03;1.47;;;1.20;;
16407;SDS011;8313;49.894;8.084;2024-03-23T12:57:30;1.37;;;0.77;;
16407;SDS011;8313;49.894;8.084;2024-03-23T12:59:57;2.93;;;0.83;;
16407;SDS011;8313;49.894;8.084;2024-03-23T13:02:23;0.73;;;0.67;;
16407;SDS011;8313;49.894;8.084;2024-03-23T13:04:52;0.83;;;0.83;;
16407;SDS011;8313;49.894;8.084;2024-03-23T13:07:18;0.70;;;0.67;;
16407;SDS011;8313;49.894;8.084;2024-03-23T13:09:45;1.93;;;0.70;;
16407;SDS011;8313;49.894;8.084;2024-03-23T13:12:10;1.20;;;0.77;;
16407;SDS011;8313;49.894;8.084;2024-03-23T13:14:39;0.73;;;0.73;;
16407;SDS011;8313;49.894;8.084;2024-03-23T13:17:05;0.97;;;0.97;;
16407;SDS011;8313;49.894;8.084;2024-03-23T13:19:32;0.80;;;0.80;;
16407;SDS011;8313;49.894;8.084;2024-03-23T13:21:58;0.83;;;0.83;;
16407;SDS011;8313;49.894;8.084;2024-03-23T13:24:25;0.90;;;0.90;;
16407;SDS011;8313;49.894;8.084;2024-03-23T13:26:51;1.63;;;0.90;;
16407;SDS011;8313;49.894;8.084;2024-03-23T13:29:18;2.80;;;1.00;;
16407;SDS011;8313;49.894;8.084;2024-03-23T13:31:44;1.10;;;1.00;;
16407;SDS011;8313;49.894;8.084;2024-03-23T13:34:13;1.67;;;1.10;;
16407;SDS011;8313;49.894;8.084;2024-03-23T13:36:42;1.27;;;1.17;;
16407;SDS011;8313;49.894;8.084;2024-03-23T13:39:09;1.00;;;0.90;;
16407;SDS011;8313;49.894;8.084;2024-03-23T13:41:39;0.80;;;0.60;;
16407;SDS011;8313;49.894;8.084;2024-03-23T13:44:08;1.37;;;0.90;;
16407;SDS011;8313;49.894;8.084;2024-03-23T13:46:37;2.43;;;1.23;;
16407;SDS011;8313;49.894;8.084;2024-03-23T13:49:08;4.40;;;1.23;;
16407;SDS011;8313;49.894;8.084;2024-03-23T13:51:57;0.97;;;0.70;;
16407;SDS011;8313;49.894;8.084;2024-03-23T13:54:23;1.07;;;0.80;;
16407;SDS011;8313;49.894;8.084;2024-03-23T13:56:53;1.80;;;1.17;;
16407;SDS011;8313;49.894;8.084;2024-03-23T13:59:20;1.10;;;0.97;;
16407;SDS011;8313;49.894;8.084;2024-03-23T14:01:46;4.73;;;0.73;;
16407;SDS011;8313;49.894;8.084;2024-03-23T14:04:12;1.03;;;0.70;;
16407;SDS011;8313;49.894;8.084;2024-03-23T14:06:38;1.00;;;0.67;;
16407;SDS011;8313;49.894;8.084;2024-03-23T14:09:04;1.47;;;0.70;;
16407;SDS011;8313;49.894;8.084;2024-03-23T14:11:33;1.90;;;0.70;;
16407;SDS011;8313;49.894;8.084;2024-03-23T14:14:01;1.33;;;0.80;;
16407;SDS011;8313;49.894;8.084;2024-03-23T14:16:28;2.63;;;1.10;;
16407;SDS011;8313;49.894;8.084;2024-03-23T14:18:54;1.87;;;1.33;;
16407;SDS011;8313;49.894;8.084;2024-03-23T14:21:20;2.80;;;1.30;;
16407;SDS011;8313;49.894;8.084;2024-03-23T14:23:46;1.83;;;1.27;;
16407;SDS011;8313;49.894;8.084;2024-03-23T14:26:11;2.00;;;1.23;;
16407;SDS011;8313;49.894;8.084;2024-03-23T14:28:37;2.33;;;1.40;;
16407;SDS011;8313;49.894;8.084;2024-03-23T14:31:02;2.30;;;1.20;;
16407;SDS011;8313;49.894;8.084;2024-03-23T14:33:35;3.20;;;1.80;;
16407;SDS011;8313;49.894;8.084;2024-03-23T14:36:07;3.33;;;1.20;;
16407;SDS011;8313;49.894;8.084;2024-03-23T14:38:33;1.17;;;0.87;;
16407;SDS011;8313;49.894;8.084;2024-03-23T14:40:59;5.37;;;1.10;;
16407;SDS011;8313;49.894;8.084;2024-03-23T14:43:26;1.13;;;0.63;;
16407;SDS011;8313;49.894;8.084;2024-03-23T14:48:47;1.03;;;0.80;;
16407;SDS011;8313;49.894;8.084;2024-03-23T14:51:13;2.20;;;0.93;;
16407;SDS011;8313;49.894;8.084;2024-03-23T14:53:44;0.90;;;0.70;;
16407;SDS011;8313;49.894;8.084;2024-03-23T14:56:10;0.93;;;0.57;;
16407;SDS011;8313;49.894;8.084;2024-03-23T14:58:38;0.80;;;0.53;;
16407;SDS011;8313;49.894;8.084;2024-03-23T15:01:05;2.03;;;0.60;;
16407;SDS011;8313;49.894;8.084;2024-03-23T15:03:35;0.80;;;0.63;;
16407;SDS011;8313;49.894;8.084;2024-03-23T15:06:04;2.77;;;1.80;;
16407;SDS011;8313;49.894;8.084;2024-03-23T15:08:30;2.80;;;0.87;;
16407;SDS011;8313;49.894;8.084;2024-03-23T15:11:00;0.87;;;0.77;;
16407;SDS011;8313;49.894;8.084;2024-03-23T15:13:30;1.10;;;1.00;;
16407;SDS011;8313;49.894;8.084;2024-03-23T15:16:00;2.57;;;1.27;;
16407;SDS011;8313;49.894;8.084;2024-03-23T15:18:25;2.40;;;0.90;;
16407;SDS011;8313;49.894;8.084;2024-03-23T15:20:55;4.93;;;0.70;;
16407;SDS011;8313;49.894;8.084;2024-03-23T15:23:21;1.73;;;0.67;;
16407;SDS011;8313;49.894;8.084;2024-03-23T15:25:57;0.80;;;0.70;;
16407;SDS011;8313;49.894;8.084;2024-03-23T15:28:24;1.33;;;0.80;;
16407;SDS011;8313;49.894;8.084;2024-03-23T15:30:53;1.43;;;0.63;;
16407;SDS011;8313;49.894;8.084;2024-03-23T15:33:24;0.90;;;0.30;;
16407;SDS011;8313;49.894;8.084;2024-03-23T15:35:49;0.57;;;0.53;;
16407;SDS011;8313;49.894;8.084;2024-03-23T15:38:15;3.97;;;1.00;;
16407;SDS011;8313;49.894;8.084;2024-03-23T15:40:40;0.40;;;0.40;;
16407;SDS011;8313;49.894;8.084;2024-03-23T15:43:06;1.27;;;0.50;;
16407;SDS011;8313;49.894;8.084;2024-03-23T15:45:32;1.30;;;0.70;;
16407;SDS011;8313;49.894;8.084;2024-03-23T15:47:57;0.63;;;0.53;;
16407;SDS011;8313;49.894;8.084;2024-03-23T15:50:23;1.23;;;0.60;;
16407;SDS011;8313;49.894;8.084;2024-03-23T15:52:48;0.40;;;0.40;;
16407;SDS011;8313;49.894;8.084;2024-03-23T15:55:15;0.40;;;0.37;;
16407;SDS011;8313;49.894;8.084;2024-03-23T15:57:41;0.50;;;0.50;;
16407;SDS011;8313;49.894;8.084;2024-03-23T16:00:07;0.50;;;0.50;;
16407;SDS011;8313;49.894;8.084;2024-03-23T16:02:37;1.10;;;0.57;;
16407;SDS011;8313;49.894;8.084;2024-03-23T16:05:03;3.30;;;0.67;;
16407;SDS011;8313;49.894;8.084;2024-03-23T16:07:29;0.67;;;0.67;;
16407;SDS011;8313;49.894;8.084;2024-03-23T16:09:55;0.43;;;0.33;;